Time;durP1;ratioP1;P1;durP2;ratioP2;P2;SDS_P1;SDS_P2;PMS_P1;PMS_P2;Temp;Humidity;BMP_temperature;BMP_pressure;BME280_temperature;BME280_humidity;BME280_pressure;Samples;Min_cycle;Max_cycle;Signal;HPM_P1;HPM_P2
2022/07/25 00:00:05;;;;;;;7.23;2.13;;;20.40;75.60;;;;;;2084736;28;20042;-85
2022/07/25 00:01:06;;;;;;;8.50;1.98;;;20.40;75.60;;;;;;2092216;28;20070;-83
2022/07/25 00:02:06;;;;;;;6.27;2.77;;;20.40;75.50;;;;;;2082495;28;20810;-84
2022/07/25 00:03:07;;;;;;;5.80;2.10;;;20.30;75.50;;;;;;2075288;28;20084;-87
2022/07/25 00:04:08;;;;;;;5.53;1.80;;;20.30;75.60;;;;;;2083243;28;20068;-85
2022/07/25 00:05:09;;;;;;;6.88;1.92;;;20.40;75.70;;;;;;2076614;28;20318;-85
2022/07/25 00:06:10;;;;;;;7.57;2.10;;;20.40;75.60;;;;;;2083464;28;20480;-86
2022/07/25 00:07:11;;;;;;;6.17;2.23;;;20.40;75.10;;;;;;2087160;28;20363;-86
2022/07/25 00:08:11;;;;;;;8.00;2.23;;;20.30;75.20;;;;;;2075302;28;20056;-85
2022/07/25 00:09:12;;;;;;;5.23;1.70;;;20.30;75.20;;;;;;2074320;28;20117;-84
2022/07/25 00:10:13;;;;;;;4.23;1.77;;;20.30;75.40;;;;;;2069560;28;20026;-85
2022/07/25 00:11:14;;;;;;;4.33;2.57;;;20.30;75.00;;;;;;2083358;28;20330;-84
2022/07/25 00:12:15;;;;;;;5.03;1.50;;;20.30;75.00;;;;;;2091547;28;20024;-87
2022/07/25 00:13:16;;;;;;;4.03;1.70;;;20.30;74.80;;;;;;2083364;28;20049;-85
2022/07/25 00:14:16;;;;;;;3.87;1.60;;;20.30;75.00;;;;;;2083141;28;20684;-84
2022/07/25 00:15:17;;;;;;;6.43;2.10;;;20.30;75.10;;;;;;2075318;28;20161;-83
2022/07/25 00:16:18;;;;;;;6.47;1.90;;;20.30;75.00;;;;;;2091538;28;20060;-86
2022/07/25 00:17:19;;;;;;;8.90;2.60;;;20.30;74.70;;;;;;2083433;28;20044;-87
2022/07/25 00:18:19;;;;;;;7.87;2.40;;;20.30;75.00;;;;;;2083434;28;20195;-84
2022/07/25 00:19:20;;;;;;;5.23;2.07;;;20.30;75.80;;;;;;2081456;28;20029;-84
2022/07/25 00:20:21;;;;;;;4.20;1.87;;;20.30;75.40;;;;;;2076415;28;20046;-83
2022/07/25 00:21:22;;;;;;;7.33;2.00;;;20.20;74.70;;;;;;2091375;28;20028;-85
2022/07/25 00:22:23;;;;;;;2.67;1.63;;;20.20;75.10;;;;;;2082516;28;20032;-84
2022/07/25 00:23:23;;;;;;;8.10;1.90;;;20.20;75.30;;;;;;2083204;28;20072;-87
2022/07/25 00:24:24;;;;;;;3.43;1.50;;;20.30;75.00;;;;;;2083113;28;20040;-84
2022/07/25 00:25:25;;;;;;;6.90;2.20;;;20.20;75.10;;;;;;2099479;28;20450;-87
2022/07/25 00:26:26;;;;;;;5.37;2.13;;;20.20;75.00;;;;;;2083176;28;20033;-83
2022/07/25 00:27:27;;;;;;;6.63;1.80;;;20.20;74.90;;;;;;2086042;28;20171;-84
2022/07/25 00:28:27;;;;;;;6.10;1.70;;;20.30;74.90;;;;;;2090719;28;20490;-84
2022/07/25 00:29:28;;;;;;;7.10;1.93;;;20.20;75.00;;;;;;2077395;28;20091;-84
2022/07/25 00:30:29;;;;;;;6.43;1.77;;;20.20;74.80;;;;;;2083192;28;20021;-87
2022/07/25 00:31:30;;;;;;;9.50;2.30;;;20.20;75.00;;;;;;2088349;28;20048;-87
2022/07/25 00:32:31;;;;;;;5.03;1.67;;;20.20;75.20;;;;;;2075057;28;20117;-85
2022/07/25 00:33:32;;;;;;;7.37;2.03;;;20.20;75.10;;;;;;2083357;28;20061;-86
2022/07/25 00:34:33;;;;;;;6.43;1.70;;;20.20;75.20;;;;;;2082995;28;20021;-86
2022/07/25 00:35:34;;;;;;;5.40;1.77;;;20.20;75.00;;;;;;2090831;28;20032;-85
2022/07/25 00:36:35;;;;;;;9.00;1.90;;;20.20;75.10;;;;;;2082993;28;20455;-86
2022/07/25 00:37:36;;;;;;;7.20;2.00;;;20.20;75.20;;;;;;2077481;28;20057;-82
2022/07/25 00:38:36;;;;;;;8.50;2.40;;;20.20;75.10;;;;;;2074995;28;20022;-85
2022/07/25 00:39:37;;;;;;;3.97;1.80;;;20.20;75.20;;;;;;2083767;28;20427;-85
2022/07/25 00:40:38;;;;;;;5.27;1.83;;;20.20;75.10;;;;;;2090301;28;20039;-87
2022/07/25 00:41:39;;;;;;;8.80;2.10;;;20.20;75.30;;;;;;2078292;28;20036;-83
2022/07/25 00:42:39;;;;;;;5.30;1.80;;;20.20;75.40;;;;;;2074949;28;20026;-83
2022/07/25 00:43:44;;;;;;;6.47;2.33;;;20.20;75.20;;;;;;2088247;28;20033;-86
2022/07/25 00:44:45;;;;;;;4.55;2.35;;;20.20;75.10;;;;;;2077631;28;20452;-85
2022/07/25 00:45:46;;;;;;;8.43;2.00;;;20.20;75.20;;;;;;2091183;28;20265;-84
2022/07/25 00:46:47;;;;;;;6.37;1.80;;;20.20;75.10;;;;;;2079317;28;20123;-86
2022/07/25 00:47:47;;;;;;;7.53;1.90;;;20.20;75.30;;;;;;2066789;28;20420;-87
2022/07/25 00:48:48;;;;;;;5.67;1.90;;;20.20;75.30;;;;;;2082262;28;20040;-86
2022/07/25 00:49:49;;;;;;;3.90;1.60;;;20.20;75.20;;;;;;2092538;28;20059;-84
2022/07/25 00:50:50;;;;;;;8.43;2.30;;;20.20;75.50;;;;;;2091227;28;20055;-83
2022/07/25 00:51:52;;;;;;;5.70;1.87;;;20.20;75.60;;;;;;2083010;28;20030;-87
2022/07/25 00:52:54;;;;;;;8.18;1.92;;;20.20;75.80;;;;;;2091389;28;20029;-83
2022/07/25 00:53:56;;;;;;;6.57;2.10;;;20.20;75.60;;;;;;2082772;28;20775;-84
2022/07/25 00:54:57;;;;;;;6.43;1.83;;;20.20;75.50;;;;;;2082404;28;20025;-87
2022/07/25 00:55:58;;;;;;;8.60;2.20;;;20.20;75.20;;;;;;2074859;28;20263;-85
2022/07/25 00:56:59;;;;;;;5.00;1.40;;;20.20;75.10;;;;;;2080845;28;20471;-84
2022/07/25 00:58:00;;;;;;;7.60;1.93;;;20.20;75.20;;;;;;2083107;28;20065;-84
2022/07/25 00:59:00;;;;;;;5.40;1.93;;;20.20;74.90;;;;;;2076000;28;20064;-86
2022/07/25 01:00:04;;;;;;;7.03;1.67;;;20.20;75.10;;;;;;2082899;28;20071;-85
2022/07/25 01:01:05;;;;;;;4.70;1.95;;;20.20;75.00;;;;;;2083331;28;20033;-84
2022/07/25 01:02:06;;;;;;;5.38;1.20;;;20.20;74.90;;;;;;2086448;28;20635;-85
2022/07/25 01:03:06;;;;;;;4.57;1.53;;;20.10;74.70;;;;;;2074864;28;20057;-84
2022/07/25 01:04:07;;;;;;;7.33;2.10;;;20.10;74.80;;;;;;2089932;28;20037;-84
2022/07/25 01:05:09;;;;;;;6.43;1.90;;;20.10;74.80;;;;;;2082961;28;20033;-86
2022/07/25 01:06:10;;;;;;;5.82;1.90;;;20.20;74.60;;;;;;2076595;28;20099;-84
2022/07/25 01:07:11;;;;;;;4.07;1.30;;;20.10;74.80;;;;;;2086988;28;20079;-87
2022/07/25 01:08:12;;;;;;;4.90;1.40;;;20.20;74.50;;;;;;2083352;28;20117;-87
2022/07/25 01:09:13;;;;;;;5.20;1.47;;;20.20;74.40;;;;;;2089235;28;20692;-86
2022/07/25 01:10:14;;;;;;;3.75;1.15;;;20.10;74.30;;;;;;2091203;28;20044;-85
2022/07/25 01:11:15;;;;;;;5.03;1.70;;;20.10;74.10;;;;;;2087524;28;20021;-85
2022/07/25 01:12:16;;;;;;;8.48;1.80;;;20.10;73.80;;;;;;2083133;28;20112;-85
2022/07/25 01:13:17;;;;;;;7.38;1.42;;;20.10;73.70;;;;;;2090925;28;20100;-83
2022/07/25 01:14:18;;;;;;;2.60;1.50;;;20.10;73.90;;;;;;2081585;28;20029;-83
2022/07/25 01:15:20;;;;;;;8.63;2.00;;;20.10;73.70;;;;;;2081973;28;20026;-86
2022/07/25 01:16:21;;;;;;;4.53;1.50;;;20.10;73.70;;;;;;2075087;28;20034;-86
2022/07/25 01:17:22;;;;;;;5.13;1.63;;;20.10;73.80;;;;;;2073232;28;20283;-83
2022/07/25 01:18:23;;;;;;;6.03;1.40;;;20.10;73.70;;;;;;2074816;28;20069;-85
2022/07/25 01:19:24;;;;;;;3.40;1.37;;;20.10;73.60;;;;;;2073193;28;20034;-85
2022/07/25 01:20:26;;;;;;;5.00;1.43;;;20.10;73.60;;;;;;2074918;28;20029;-85
2022/07/25 01:21:27;;;;;;;7.18;1.65;;;20.10;73.60;;;;;;2079967;28;20452;-85
2022/07/25 01:22:28;;;;;;;8.75;1.67;;;20.00;73.80;;;;;;2082078;28;20270;-85
2022/07/25 01:23:29;;;;;;;6.37;1.93;;;20.00;73.60;;;;;;2083012;28;20103;-88
2022/07/25 01:24:30;;;;;;;6.10;1.83;;;20.00;73.50;;;;;;2076033;28;20029;-85
2022/07/25 01:25:31;;;;;;;5.18;1.83;;;20.00;73.70;;;;;;2082775;28;20109;-85
2022/07/25 01:26:32;;;;;;;4.80;1.83;;;20.00;73.70;;;;;;2086968;28;20033;-84
2022/07/25 01:27:32;;;;;;;8.03;2.00;;;20.10;73.70;;;;;;2070616;28;20064;-83
2022/07/25 01:28:33;;;;;;;4.00;1.53;;;20.00;73.70;;;;;;2065931;28;20125;-86
2022/07/25 01:29:34;;;;;;;5.53;1.57;;;20.00;73.90;;;;;;2072941;28;20022;-86
2022/07/25 01:30:35;;;;;;;7.40;1.80;;;20.00;74.00;;;;;;2082617;28;20061;-85
2022/07/25 01:31:36;;;;;;;7.00;1.50;;;20.00;73.90;;;;;;2082756;28;20018;-87
2022/07/25 01:32:37;;;;;;;3.97;1.60;;;20.00;74.10;;;;;;2074419;28;20029;-84
2022/07/25 01:33:38;;;;;;;8.10;1.90;;;20.00;74.10;;;;;;2074846;28;20463;-83
2022/07/25 01:34:39;;;;;;;2.47;1.30;;;20.00;74.00;;;;;;2095453;28;20025;-87
2022/07/25 01:35:40;;;;;;;3.73;1.20;;;20.00;74.10;;;;;;2088942;28;20029;-86
2022/07/25 01:36:40;;;;;;;5.30;1.67;;;20.00;74.00;;;;;;2074659;28;20030;-84
2022/07/25 01:37:41;;;;;;;6.33;2.00;;;20.00;74.00;;;;;;2077957;28;20021;-83
2022/07/25 01:38:42;;;;;;;7.20;1.80;;;20.00;74.10;;;;;;2082908;28;20025;-85
2022/07/25 01:39:43;;;;;;;5.70;1.83;;;20.10;74.20;;;;;;2076756;28;20049;-85
2022/07/25 01:40:44;;;;;;;5.70;1.70;;;20.00;74.10;;;;;;2074626;28;20037;-84
2022/07/25 01:41:45;;;;;;;3.27;1.43;;;20.00;74.10;;;;;;2078634;28;20029;-83
2022/07/25 01:42:45;;;;;;;5.93;1.70;;;20.00;74.20;;;;;;2074620;28;20416;-86
2022/07/25 01:43:46;;;;;;;8.27;1.60;;;20.10;74.40;;;;;;2088506;28;20096;-86
2022/07/25 01:44:47;;;;;;;5.23;1.60;;;20.00;74.10;;;;;;2082647;28;20349;-84
2022/07/25 01:45:48;;;;;;;6.43;1.70;;;20.00;74.00;;;;;;2090956;28;20032;-86
2022/07/25 01:46:49;;;;;;;6.73;2.83;;;20.10;74.20;;;;;;2078252;28;20198;-88
2022/07/25 01:47:50;;;;;;;6.63;1.88;;;20.10;74.30;;;;;;2066386;28;20445;-86
2022/07/25 01:48:51;;;;;;;5.33;1.83;;;20.10;74.80;;;;;;2067364;28;20120;-86
2022/07/25 01:49:52;;;;;;;6.70;1.50;;;20.00;75.00;;;;;;2072778;28;20419;-87
2022/07/25 01:50:52;;;;;;;4.50;1.73;;;20.00;75.40;;;;;;2066411;28;20109;-87
2022/07/25 01:51:53;;;;;;;2.60;1.30;;;20.10;75.60;;;;;;2063084;28;20030;-86
2022/07/25 01:52:54;;;;;;;6.90;1.50;;;20.00;75.80;;;;;;2066287;28;20334;-84
2022/07/25 01:53:55;;;;;;;5.07;1.67;;;20.00;76.00;;;;;;2058336;28;20051;-84
2022/07/25 01:54:56;;;;;;;9.93;1.90;;;20.00;76.40;;;;;;2057763;28;20118;-86
2022/07/25 01:55:57;;;;;;;9.80;1.57;;;20.00;76.80;;;;;;2058424;28;20166;-84
2022/07/25 01:56:57;;;;;;;3.97;1.33;;;19.90;78.00;;;;;;2070269;28;20018;-85
2022/07/25 01:57:58;;;;;;;3.73;1.60;;;19.90;77.60;;;;;;2074455;28;20477;-87
2022/07/25 01:58:59;;;;;;;8.13;2.00;;;19.90;77.90;;;;;;2066234;28;20026;-85
2022/07/25 02:00:00;;;;;;;6.00;1.70;;;19.90;78.10;;;;;;2061351;28;20031;-85
2022/07/25 02:01:00;;;;;;;7.47;1.97;;;19.90;78.10;;;;;;2066302;28;20027;-86
2022/07/25 02:02:01;;;;;;;7.03;1.60;;;19.90;78.10;;;;;;2065465;28;20062;-86
2022/07/25 02:04:22;;;;;;;4.50;1.90;;;19.90;78.00;;;;;;2068815;28;20519;-83
2022/07/25 02:05:23;;;;;;;6.03;1.80;;;19.90;78.00;;;;;;2064463;28;20329;-85
2022/07/25 02:06:24;;;;;;;4.50;1.37;;;20.00;78.20;;;;;;2066206;28;20085;-84
2022/07/25 02:07:24;;;;;;;3.07;1.90;;;20.00;78.20;;;;;;2072083;28;20034;-84
2022/07/25 02:08:25;;;;;;;4.87;1.67;;;20.00;78.30;;;;;;2065057;28;20045;-86
2022/07/25 02:09:26;;;;;;;4.37;1.40;;;20.00;78.20;;;;;;2066302;28;20118;-84
2022/07/25 02:10:27;;;;;;;4.25;1.33;;;19.90;78.20;;;;;;2072376;28;20022;-85
2022/07/25 02:11:28;;;;;;;8.60;2.10;;;19.90;78.10;;;;;;2074490;28;20065;-84
2022/07/25 02:12:28;;;;;;;2.77;1.43;;;20.00;78.00;;;;;;2069666;28;20018;-85
2022/07/25 02:13:29;;;;;;;4.90;1.50;;;19.90;78.00;;;;;;2074149;28;20026;-84
2022/07/25 02:14:30;;;;;;;3.37;1.57;;;20.00;78.00;;;;;;2074315;28;20068;-84
2022/07/25 02:15:31;;;;;;;6.63;1.70;;;20.00;78.00;;;;;;2057334;28;20282;-84
2022/07/25 02:16:32;;;;;;;4.97;1.67;;;20.00;78.00;;;;;;2066139;28;20050;-87
2022/07/25 02:17:32;;;;;;;5.20;1.60;;;20.00;78.00;;;;;;2071632;28;20064;-84
2022/07/25 02:18:33;;;;;;;4.73;2.23;;;20.00;78.00;;;;;;2058235;28;20031;-85
2022/07/25 02:19:35;;;;;;;9.63;2.37;;;20.00;78.00;;;;;;2066043;28;20495;-88
2022/07/25 02:20:35;;;;;;;6.90;2.25;;;20.00;77.90;;;;;;2066250;28;20045;-84
2022/07/25 02:21:36;;;;;;;10.87;2.30;;;20.00;77.90;;;;;;2057581;28;20030;-83
2022/07/25 02:22:37;;;;;;;6.10;1.77;;;20.00;78.00;;;;;;2071380;28;20030;-87
2022/07/25 02:23:39;;;;;;;4.60;2.07;;;20.00;77.90;;;;;;2066296;28;20037;-85
2022/07/25 02:24:40;;;;;;;;;;;20.00;78.00;;;;;;2082983;28;20033;-87
2022/07/25 02:25:41;;;;;;;7.15;1.98;;;20.00;78.00;;;;;;2066175;28;19910;-84
2022/07/25 02:26:41;;;;;;;4.83;1.80;;;19.90;78.10;;;;;;2066304;28;20052;-87
2022/07/25 02:27:42;;;;;;;5.47;1.93;;;20.00;78.00;;;;;;2065996;28;20033;-87
2022/07/25 02:28:43;;;;;;;4.33;1.60;;;19.90;78.10;;;;;;2050147;28;20114;-86
2022/07/25 02:29:44;;;;;;;4.27;1.70;;;20.00;78.10;;;;;;2065799;28;20061;-89
2022/07/25 02:30:45;;;;;;;6.43;1.40;;;19.90;78.00;;;;;;2060255;28;20054;-87
2022/07/25 02:31:45;;;;;;;7.87;1.23;;;19.90;78.00;;;;;;2066030;28;20402;-87
2022/07/25 02:32:46;;;;;;;6.77;1.20;;;19.90;78.00;;;;;;2065875;28;20468;-84
2022/07/25 02:33:47;;;;;;;6.50;2.10;;;19.90;77.90;;;;;;2058269;28;20078;-84
2022/07/25 02:34:48;;;;;;;5.57;1.40;;;19.90;77.90;;;;;;2065503;28;20449;-86
2022/07/25 02:35:49;;;;;;;4.57;1.83;;;19.90;77.80;;;;;;2061136;28;20054;-83
2022/07/25 02:36:49;;;;;;;5.88;1.80;;;19.80;77.70;;;;;;2071409;28;20102;-85
2022/07/25 02:37:50;;;;;;;4.17;1.30;;;19.80;77.60;;;;;;2066042;28;20030;-87
2022/07/25 02:38:51;;;;;;;6.83;1.77;;;19.80;77.40;;;;;;2058001;28;20027;-87
2022/07/25 02:39:52;;;;;;;6.90;1.48;;;19.80;77.60;;;;;;2065412;28;20031;-83
2022/07/25 02:40:53;;;;;;;4.53;1.40;;;19.80;77.50;;;;;;2059838;28;20026;-84
2022/07/25 02:41:53;;;;;;;9.10;1.60;;;19.80;77.70;;;;;;2063446;28;20022;-85
2022/07/25 02:42:54;;;;;;;7.93;2.17;;;19.70;77.50;;;;;;2062415;28;20054;-88
2022/07/25 02:43:55;;;;;;;3.47;1.23;;;19.80;77.70;;;;;;2058052;28;20045;-86
2022/07/25 02:44:56;;;;;;;5.60;1.70;;;19.80;77.70;;;;;;2079176;28;20026;-87
2022/07/25 02:45:56;;;;;;;5.53;1.50;;;19.80;77.50;;;;;;2058218;28;20030;-84
2022/07/25 02:46:57;;;;;;;6.97;2.00;;;19.80;77.60;;;;;;2068460;28;20467;-83
2022/07/25 02:47:58;;;;;;;4.10;1.50;;;19.80;77.50;;;;;;2082313;28;20033;-87
2022/07/25 02:48:59;;;;;;;5.53;1.60;;;19.80;77.40;;;;;;2073534;28;20041;-87
2022/07/25 02:50:00;;;;;;;6.32;1.50;;;19.80;77.60;;;;;;2074264;28;20030;-83
2022/07/25 02:51:01;;;;;;;4.73;1.37;;;19.80;77.40;;;;;;2082397;28;20037;-84
2022/07/25 02:52:02;;;;;;;5.90;1.30;;;19.70;77.20;;;;;;2082271;28;20132;-85
2022/07/25 02:53:03;;;;;;;7.10;1.90;;;19.70;77.30;;;;;;2090482;28;20562;-85
2022/07/25 02:54:04;;;;;;;5.80;1.20;;;19.70;77.50;;;;;;2090506;28;20531;-86
2022/07/25 02:55:05;;;;;;;9.43;1.70;;;19.80;77.40;;;;;;2079136;28;20033;-87
2022/07/25 02:56:06;;;;;;;4.70;1.60;;;19.70;77.00;;;;;;2090723;28;20517;-86
2022/07/25 02:57:07;;;;;;;4.30;1.10;;;19.80;77.00;;;;;;2097318;28;20059;-85
2022/07/25 02:58:08;;;;;;;3.53;1.13;;;19.70;77.00;;;;;;2090571;28;20029;-84
2022/07/25 02:59:09;;;;;;;5.73;1.63;;;19.70;76.50;;;;;;2082301;28;20525;-84
2022/07/25 03:00:11;;;;;;;5.33;1.23;;;19.70;76.40;;;;;;2093017;28;20033;-87
2022/07/25 03:01:11;;;;;;;;;;;19.70;76.70;;;;;;2074349;28;20113;-84
2022/07/25 03:02:12;;;;;;;4.32;1.27;;;19.60;76.90;;;;;;2089107;28;19908;-85
2022/07/25 03:03:13;;;;;;;3.80;1.40;;;19.60;76.90;;;;;;2090678;28;20029;-84
2022/07/25 03:04:14;;;;;;;3.60;1.37;;;19.60;76.60;;;;;;2082214;28;20036;-86
2022/07/25 03:05:15;;;;;;;7.45;1.55;;;19.60;76.60;;;;;;2079466;28;20022;-87
2022/07/25 03:06:16;;;;;;;4.90;1.17;;;19.60;76.70;;;;;;2081448;28;20026;-85
2022/07/25 03:07:17;;;;;;;2.92;1.27;;;19.60;76.50;;;;;;2088392;28;20033;-83
2022/07/25 03:08:18;;;;;;;6.57;1.37;;;19.60;76.80;;;;;;2073590;28;20030;-85
2022/07/25 03:09:19;;;;;;;3.57;1.10;;;19.60;76.60;;;;;;2078993;28;20021;-87
2022/07/25 03:10:20;;;;;;;4.53;1.20;;;19.60;76.70;;;;;;2075478;28;20457;-85
2022/07/25 03:11:21;;;;;;;6.27;1.33;;;19.60;76.70;;;;;;2081105;28;20026;-85
2022/07/25 03:12:21;;;;;;;4.25;1.27;;;19.60;76.60;;;;;;2074244;28;20034;-86
2022/07/25 03:13:22;;;;;;;3.70;1.37;;;19.60;76.70;;;;;;2074080;28;20392;-85
2022/07/25 03:14:23;;;;;;;5.70;1.03;;;19.60;76.70;;;;;;2082221;28;20121;-85
2022/07/25 03:15:24;;;;;;;10.20;1.67;;;19.60;76.80;;;;;;2081519;28;20029;-85
2022/07/25 03:16:25;;;;;;;5.53;1.30;;;19.60;76.60;;;;;;2071173;28;20029;-84
2022/07/25 03:17:27;;;;;;;4.78;1.45;;;19.60;76.60;;;;;;2075632;28;20276;-86
2022/07/25 03:18:28;;;;;;;9.13;1.40;;;19.60;76.80;;;;;;2087153;28;20036;-84
2022/07/25 03:19:29;;;;;;;3.70;1.10;;;19.60;76.70;;;;;;2075599;28;20029;-84
2022/07/25 03:20:30;;;;;;;3.17;1.42;;;19.60;76.80;;;;;;2080928;28;20017;-86
2022/07/25 03:21:30;;;;;;;9.17;1.70;;;19.60;77.40;;;;;;2075665;28;20064;-87
2022/07/25 03:22:31;;;;;;;3.93;1.20;;;19.60;77.20;;;;;;2082979;28;20064;-87
2022/07/25 03:23:32;;;;;;;5.88;1.17;;;19.60;77.20;;;;;;2083776;28;20036;-86
2022/07/25 03:24:33;;;;;;;4.30;1.13;;;19.60;77.40;;;;;;2092091;28;20033;-84
2022/07/25 03:25:34;;;;;;;3.90;0.93;;;19.60;77.60;;;;;;2088902;28;20030;-86
2022/07/25 03:26:35;;;;;;;1.43;0.80;;;19.60;77.90;;;;;;2092155;28;20064;-84
2022/07/25 03:27:35;;;;;;;4.63;1.00;;;19.60;78.20;;;;;;2091913;28;20056;-84
2022/07/25 03:28:36;;;;;;;3.33;1.03;;;19.50;78.30;;;;;;2072514;28;20209;-86
2022/07/25 03:29:37;;;;;;;2.77;1.17;;;19.50;78.80;;;;;;2075552;28;20022;-89
2022/07/25 03:30:38;;;;;;;3.90;1.13;;;19.50;78.60;;;;;;2080447;28;20022;-85
2022/07/25 03:31:39;;;;;;;5.00;0.70;;;19.50;78.50;;;;;;2083717;28;20030;-84
2022/07/25 03:32:40;;;;;;;3.87;0.80;;;19.60;78.60;;;;;;2083432;28;20068;-86
2022/07/25 03:33:41;;;;;;;3.95;0.90;;;19.50;78.60;;;;;;2077507;28;20033;-87
2022/07/25 03:34:42;;;;;;;;;;;19.50;78.60;;;;;;2092303;28;20115;-84
2022/07/25 03:35:44;;;;;;;3.80;0.73;;;19.40;78.50;;;;;;2091091;28;19905;-86
2022/07/25 03:36:45;;;;;;;1.27;0.52;;;19.40;78.50;;;;;;2075643;28;20037;-88
2022/07/25 03:37:46;;;;;;;1.63;0.67;;;19.40;78.40;;;;;;2090879;28;20025;-84
2022/07/25 03:38:47;;;;;;;1.30;0.60;;;19.40;78.40;;;;;;2091719;28;20116;-85
2022/07/25 03:39:48;;;;;;;1.88;0.47;;;19.30;78.70;;;;;;2083343;28;20271;-85
2022/07/25 03:40:49;;;;;;;1.10;0.40;;;19.30;78.80;;;;;;2083632;28;20028;-84
2022/07/25 03:41:51;;;;;;;1.52;0.50;;;19.30;78.80;;;;;;2091401;28;20033;-85
2022/07/25 03:42:52;;;;;;;1.58;0.35;;;19.30;78.90;;;;;;2090770;28;20037;-88
2022/07/25 03:43:53;;;;;;;2.05;0.43;;;19.40;78.90;;;;;;2091873;28;20258;-84
2022/07/25 03:44:54;;;;;;;1.33;0.60;;;19.30;78.80;;;;;;2083531;28;20029;-87
2022/07/25 03:45:54;;;;;;;0.90;0.43;;;19.30;79.00;;;;;;2087636;28;20040;-84
2022/07/25 03:46:56;;;;;;;1.30;0.40;;;19.30;79.00;;;;;;2083390;28;20050;-86
2022/07/25 03:47:57;;;;;;;5.85;1.48;;;19.30;79.00;;;;;;2073987;28;20029;-84
2022/07/25 03:48:57;;;;;;;0.80;0.38;;;19.30;79.10;;;;;;2082848;28;20492;-88
2022/07/25 03:49:58;;;;;;;3.27;0.63;;;19.20;78.90;;;;;;2083536;28;20038;-86
2022/07/25 03:50:59;;;;;;;2.53;0.70;;;19.30;79.00;;;;;;2080591;28;20069;-86
2022/07/25 03:52:00;;;;;;;2.17;0.67;;;19.30;79.10;;;;;;2075330;28;20033;-86
2022/07/25 03:53:00;;;;;;;1.70;0.57;;;19.30;79.20;;;;;;2088602;28;20051;-84
2022/07/25 03:54:01;;;;;;;1.93;0.70;;;19.30;79.40;;;;;;2083489;28;20586;-86
2022/07/25 03:55:04;;;;;;;2.40;0.70;;;19.30;79.30;;;;;;2074602;28;20021;-88
2022/07/25 03:56:05;;;;;;;2.75;0.60;;;19.30;79.20;;;;;;2079185;28;20029;-85
2022/07/25 03:57:06;;;;;;;2.80;0.60;;;19.30;79.30;;;;;;2079087;28;20766;-87
2022/07/25 03:58:06;;;;;;;2.10;0.57;;;19.30;79.30;;;;;;2094795;28;20032;-85
2022/07/25 03:59:08;;;;;;;2.53;0.90;;;19.30;79.40;;;;;;2084387;28;20101;-87
2022/07/25 04:00:11;;;;;;;;;;;19.30;79.30;;;;;;2083895;28;20021;-84
2022/07/25 04:01:12;;;;;;;2.83;0.60;;;19.30;79.30;;;;;;2087620;28;19912;-86
2022/07/25 04:02:12;;;;;;;2.17;0.60;;;19.30;79.30;;;;;;2082660;28;20459;-87
2022/07/25 04:03:13;;;;;;;2.95;0.50;;;19.30;79.30;;;;;;2081885;28;20066;-85
2022/07/25 04:04:15;;;;;;;5.73;0.70;;;19.40;79.40;;;;;;2083346;28;20075;-84
2022/07/25 04:05:15;;;;;;;2.60;0.50;;;19.40;79.40;;;;;;2085737;28;20036;-86
2022/07/25 04:06:17;;;;;;;1.93;0.50;;;19.40;79.40;;;;;;2087784;28;20030;-87
2022/07/25 04:07:18;;;;;;;3.42;0.70;;;19.40;79.40;;;;;;2075233;28;20045;-84
2022/07/25 04:08:19;;;;;;;5.73;0.90;;;19.40;79.40;;;;;;2089956;28;20031;-83
2022/07/25 04:09:19;;;;;;;1.77;0.83;;;19.30;79.40;;;;;;2083283;28;20026;-88
2022/07/25 04:10:20;;;;;;;3.17;0.60;;;19.30;79.60;;;;;;2075203;28;20113;-88
2022/07/25 04:11:21;;;;;;;2.87;0.50;;;19.30;79.60;;;;;;2094324;28;20029;-86
2022/07/25 04:12:22;;;;;;;1.55;0.50;;;19.30;79.50;;;;;;2091575;28;20025;-86
2022/07/25 04:13:24;;;;;;;1.07;0.60;;;19.30;79.50;;;;;;2083332;28;20108;-84
2022/07/25 04:14:46;;;;;;;2.25;0.80;;;19.30;79.40;;;;;;2083531;28;20116;-86
2022/07/25 04:15:47;;;;;;;1.92;0.70;;;19.30;79.50;;;;;;2089574;28;20017;-86
2022/07/25 04:16:48;;;;;;;3.57;1.03;;;19.30;79.40;;;;;;2080764;28;20037;-85
2022/07/25 04:17:49;;;;;;;2.55;0.45;;;19.20;79.40;;;;;;2083483;28;20527;-85
2022/07/25 04:18:50;;;;;;;3.17;0.70;;;19.20;79.30;;;;;;2091453;28;20029;-87
2022/07/25 04:19:51;;;;;;;1.98;0.60;;;19.20;79.30;;;;;;2092012;28;20098;-84
2022/07/25 04:20:52;;;;;;;4.20;0.95;;;19.20;79.50;;;;;;2083313;28;20037;-85
2022/07/25 04:21:53;;;;;;;6.70;1.00;;;19.20;79.50;;;;;;2080031;28;20022;-86
2022/07/25 04:22:54;;;;;;;2.63;0.83;;;19.20;79.40;;;;;;2091581;28;20056;-86
2022/07/25 04:23:55;;;;;;;3.50;0.73;;;19.20;79.40;;;;;;2091391;28;20029;-85
2022/07/25 04:24:56;;;;;;;2.05;0.68;;;19.20;79.40;;;;;;2085612;28;20026;-85
2022/07/25 04:25:57;;;;;;;1.27;0.53;;;19.20;79.40;;;;;;2074925;28;20034;-83
2022/07/25 04:26:58;;;;;;;7.28;0.80;;;19.20;79.60;;;;;;2080302;28;20340;-86
2022/07/25 04:27:59;;;;;;;2.00;0.90;;;19.20;79.40;;;;;;2079716;28;20025;-87
2022/07/25 04:29:02;;;;;;;4.80;0.97;;;19.30;79.40;;;;;;2068935;28;20018;-87
2022/07/25 04:30:03;;;;;;;3.72;1.00;;;19.20;79.30;;;;;;2077998;28;20267;-85
2022/07/25 04:31:04;;;;;;;2.80;1.05;;;19.20;79.20;;;;;;2083154;28;20791;-84
2022/07/25 04:32:05;;;;;;;1.95;0.70;;;19.20;79.50;;;;;;2073459;28;20527;-87
2022/07/25 04:33:06;;;;;;;3.53;0.88;;;19.20;79.30;;;;;;2067094;28;20027;-88
2022/07/25 04:34:07;;;;;;;3.07;1.00;;;19.10;79.30;;;;;;2083008;28;20349;-86
2022/07/25 04:35:08;;;;;;;2.77;0.80;;;19.20;79.50;;;;;;2076745;28;20350;-84
2022/07/25 04:36:09;;;;;;;2.80;0.88;;;19.20;79.80;;;;;;2074860;28;20352;-84
2022/07/25 04:37:10;;;;;;;1.53;0.70;;;19.20;79.80;;;;;;2083338;28;20391;-86
2022/07/25 04:38:11;;;;;;;2.17;0.90;;;19.20;79.80;;;;;;2091438;28;20306;-87
2022/07/25 04:39:12;;;;;;;5.93;1.20;;;19.20;79.80;;;;;;2083123;28;20045;-85
2022/07/25 04:40:13;;;;;;;3.40;1.10;;;19.20;79.70;;;;;;2068924;28;20030;-87
2022/07/25 04:41:14;;;;;;;5.07;1.30;;;19.10;79.70;;;;;;2074902;28;20037;-86
2022/07/25 04:42:15;;;;;;;3.53;0.90;;;19.10;79.70;;;;;;2090564;28;20028;-87
2022/07/25 04:43:16;;;;;;;2.23;0.93;;;19.20;79.70;;;;;;2083310;28;20071;-84
2022/07/25 04:44:16;;;;;;;3.37;1.00;;;19.20;79.70;;;;;;2082582;28;20448;-84
2022/07/25 04:45:17;;;;;;;2.83;0.93;;;19.20;79.70;;;;;;2076966;28;20125;-86
2022/07/25 04:46:19;;;;;;;3.97;0.90;;;19.20;79.60;;;;;;2074815;28;20034;-86
2022/07/25 04:47:20;;;;;;;4.20;1.25;;;19.20;79.50;;;;;;2093080;28;20052;-84
2022/07/25 04:48:21;;;;;;;2.35;0.90;;;19.20;79.50;;;;;;2090885;28;20265;-83
2022/07/25 04:49:22;;;;;;;3.40;1.30;;;19.20;79.50;;;;;;2075100;28;20488;-85
2022/07/25 04:50:23;;;;;;;5.50;1.80;;;19.20;79.40;;;;;;2076714;28;20279;-87
2022/07/25 04:51:24;;;;;;;2.13;0.87;;;19.20;79.30;;;;;;2083141;28;20033;-85
2022/07/25 04:52:25;;;;;;;2.77;0.83;;;19.20;79.40;;;;;;2083133;28;20035;-84
2022/07/25 04:53:27;;;;;;;4.10;1.13;;;19.30;79.30;;;;;;2083096;28;20266;-85
2022/07/25 04:54:28;;;;;;;4.75;1.25;;;19.30;79.40;;;;;;2089880;28;20029;-84
2022/07/25 04:55:31;;;;;;;3.92;1.10;;;19.30;79.30;;;;;;2076129;28;20018;-84
2022/07/25 04:56:32;;;;;;;5.28;1.10;;;19.30;79.30;;;;;;2074889;28;20042;-85
2022/07/25 04:57:33;;;;;;;2.50;0.77;;;19.20;79.20;;;;;;2079444;28;20271;-86
2022/07/25 04:58:34;;;;;;;6.00;1.20;;;19.20;79.30;;;;;;2091612;28;20065;-88
2022/07/25 04:59:35;;;;;;;4.68;1.15;;;19.20;79.60;;;;;;2082288;28;20029;-84
2022/07/25 05:00:35;;;;;;;3.77;1.20;;;19.20;79.50;;;;;;2074707;28;20079;-87
2022/07/25 05:01:36;;;;;;;4.03;1.23;;;19.10;79.70;;;;;;2082536;28;20068;-84
2022/07/25 05:02:37;;;;;;;3.67;1.00;;;19.10;79.70;;;;;;2086431;28;20025;-84
2022/07/25 05:03:38;;;;;;;4.53;1.13;;;19.20;79.80;;;;;;2083050;28;20033;-87
2022/07/25 05:04:39;;;;;;;4.27;1.07;;;19.20;79.90;;;;;;2078815;28;20048;-85
2022/07/25 05:05:40;;;;;;;2.37;0.90;;;19.20;79.90;;;;;;2082980;28;20068;-87
2022/07/25 05:06:41;;;;;;;4.30;1.10;;;19.20;80.10;;;;;;2091228;28;20064;-84
2022/07/25 05:07:42;;;;;;;2.03;1.00;;;19.20;80.10;;;;;;2093725;28;20102;-87
2022/07/25 05:08:43;;;;;;;3.53;1.27;;;19.20;80.00;;;;;;2090628;28;20036;-87
2022/07/25 05:09:44;;;;;;;2.23;0.90;;;19.10;80.10;;;;;;2083157;28;20025;-86
2022/07/25 05:10:45;;;;;;;2.00;0.90;;;19.10;80.30;;;;;;2074980;28;20036;-87
2022/07/25 05:11:46;;;;;;;2.93;0.83;;;19.10;80.50;;;;;;2074758;28;20072;-86
2022/07/25 05:12:47;;;;;;;2.90;1.00;;;19.10;80.60;;;;;;2083928;28;20055;-85
2022/07/25 05:13:48;;;;;;;3.17;0.97;;;19.10;80.50;;;;;;2091359;28;20103;-85
2022/07/25 05:14:49;;;;;;;5.97;0.87;;;19.10;80.60;;;;;;2082819;28;20071;-84
2022/07/25 05:15:49;;;;;;;8.57;1.60;;;19.10;80.70;;;;;;2073863;28;20018;-87
2022/07/25 05:16:50;;;;;;;3.43;1.13;;;19.10;80.60;;;;;;2072352;28;20041;-87
2022/07/25 05:17:51;;;;;;;3.83;1.30;;;19.10;80.70;;;;;;2074427;28;20488;-85
2022/07/25 05:18:52;;;;;;;3.83;1.10;;;19.10;80.90;;;;;;2082914;28;20049;-83